Time;durP1;ratioP1;P1;durP2;ratioP2;P2;SDS_P1;SDS_P2;PMS_P1;PMS_P2;Temp;Humidity;BMP_temperature;BMP_pressure;BME280_temperature;BME280_humidity;BME280_pressure;Samples;Min_cycle;Max_cycle;Signal;HPM_P1;HPM_P2
2023/06/09 00:02:06;;;;;;;15.73;8.73;;;14.50;72.70;;;;;;5020958;28;20191;-56
2023/06/09 00:04:35;;;;;;;10.13;7.90;;;14.50;73.50;;;;;;5022541;28;20700;-55
2023/06/09 00:07:02;;;;;;;12.60;9.10;;;14.40;74.10;;;;;;5024601;28;20188;-56
2023/06/09 00:09:30;;;;;;;11.70;8.60;;;14.30;74.80;;;;;;5020746;28;20430;-56
2023/06/09 00:11:56;;;;;;;10.07;8.60;;;14.30;76.40;;;;;;5021893;28;20477;-56
2023/06/09 00:14:22;;;;;;;15.03;9.50;;;14.20;77.50;;;;;;5018405;28;20439;-55
2023/06/09 00:16:47;;;;;;;11.97;9.07;;;14.20;79.40;;;;;;5017171;28;20204;-57
2023/06/09 00:19:15;;;;;;;9.40;8.33;;;14.10;80.80;;;;;;5026039;28;20172;-56
2023/06/09 00:21:44;;;;;;;12.93;8.80;;;14.10;81.30;;;;;;5023560;28;20180;-56
2023/06/09 00:24:10;;;;;;;10.10;8.43;;;14.10;82.60;;;;;;5025343;28;20458;-53
2023/06/09 00:26:35;;;;;;;12.23;8.73;;;14.10;82.90;;;;;;5021686;28;20435;-55
2023/06/09 00:29:01;;;;;;;9.33;7.93;;;14.10;83.00;;;;;;5023677;28;20184;-55
2023/06/09 00:31:27;;;;;;;10.97;8.67;;;14.10;83.00;;;;;;5029233;28;20709;-56
2023/06/09 00:33:53;;;;;;;13.27;9.70;;;14.10;82.60;;;;;;5027939;28;20450;-56
2023/06/09 00:36:18;;;;;;;11.50;9.00;;;14.00;82.70;;;;;;5021830;28;20172;-55
2023/06/09 00:38:44;;;;;;;10.13;8.90;;;14.00;83.70;;;;;;5025155;28;20830;-57
2023/06/09 00:41:09;;;;;;;9.53;8.43;;;14.00;84.30;;;;;;5020266;28;20172;-56
2023/06/09 00:43:35;;;;;;;11.30;8.23;;;13.90;85.40;;;;;;5029681;28;20333;-56
2023/06/09 00:46:07;;;;;;;11.57;8.90;;;13.80;88.30;;;;;;5027381;28;20176;-56
2023/06/09 00:48:35;;;;;;;10.63;8.20;;;13.80;88.20;;;;;;5026281;28;20235;-55
2023/06/09 00:51:01;;;;;;;9.90;8.73;;;13.70;86.90;;;;;;5025075;28;20443;-55
2023/06/09 00:53:27;;;;;;;10.03;8.30;;;13.60;87.80;;;;;;5027176;28;20454;-56
2023/06/09 00:55:53;;;;;;;13.40;9.30;;;13.60;89.70;;;;;;5025494;28;20184;-56
2023/06/09 00:58:20;;;;;;;9.37;8.43;;;13.50;90.20;;;;;;5022830;28;20514;-56
2023/06/09 01:00:46;;;;;;;10.50;9.20;;;13.50;90.80;;;;;;5023046;28;20230;-56
2023/06/09 01:03:11;;;;;;;14.63;9.00;;;13.40;90.80;;;;;;5026633;28;20446;-56
2023/06/09 01:05:38;;;;;;;11.77;9.00;;;13.40;91.40;;;;;;5030749;28;20203;-56
2023/06/09 01:08:36;;;;;;;11.50;9.43;;;13.40;91.70;;;;;;5024472;28;20180;-55
2023/06/09 01:11:18;;;;;;;11.77;8.60;;;13.40;91.50;;;;;;5026634;28;20417;-57
2023/06/09 01:13:56;;;;;;;13.37;9.17;;;13.40;91.50;;;;;;5029565;28;20446;-57
2023/06/09 01:16:27;;;;;;;13.07;9.77;;;13.30;91.60;;;;;;5016639;28;20864;-57
2023/06/09 01:18:54;;;;;;;12.13;8.83;;;13.30;92.50;;;;;;5022505;28;20799;-57
2023/06/09 01:21:32;;;;;;;12.20;9.10;;;13.20;93.10;;;;;;5023208;28;20421;-55
2023/06/09 01:24:16;;;;;;;12.97;9.43;;;13.20;93.70;;;;;;5023453;28;20551;-56
2023/06/09 01:26:42;;;;;;;12.27;9.17;;;13.20;94.50;;;;;;5025600;28;20434;-55
2023/06/09 01:29:10;;;;;;;12.50;9.80;;;13.10;94.70;;;;;;5028986;28;20457;-56
2023/06/09 01:31:37;;;;;;;12.60;9.60;;;13.10;95.00;;;;;;5027637;28;20423;-57
2023/06/09 01:34:03;;;;;;;10.40;9.27;;;13.10;94.40;;;;;;5027732;28;20450;-57
2023/06/09 01:36:29;;;;;;;11.57;8.70;;;13.10;94.00;;;;;;5026093;28;20438;-57
2023/06/09 01:38:56;;;;;;;13.97;8.87;;;13.10;94.00;;;;;;5024771;28;20435;-57
2023/06/09 01:41:23;;;;;;;10.37;9.03;;;13.10;94.80;;;;;;5029401;28;20476;-57
2023/06/09 01:43:49;;;;;;;9.93;8.90;;;13.10;95.00;;;;;;5027918;28;20458;-56
2023/06/09 01:46:14;;;;;;;12.20;9.47;;;13.00;95.90;;;;;;5025584;28;20415;-57
2023/06/09 01:48:52;;;;;;;11.37;9.70;;;13.00;96.20;;;;;;5025478;28;20183;-57
2023/06/09 01:51:50;;;;;;;11.33;9.13;;;13.00;96.10;;;;;;5025415;28;20686;-57
2023/06/09 01:54:24;;;;;;;11.57;9.03;;;13.00;95.90;;;;;;5023008;28;20427;-57
2023/06/09 01:57:05;;;;;;;12.10;9.30;;;13.00;95.70;;;;;;5021970;28;20448;-57
2023/06/09 01:59:43;;;;;;;9.17;8.20;;;12.90;95.30;;;;;;5021851;28;20419;-56
2023/06/09 02:02:11;;;;;;;13.13;9.30;;;12.90;95.10;;;;;;5023111;28;20493;-57
2023/06/09 02:04:38;;;;;;;13.20;9.40;;;12.90;95.10;;;;;;5023775;28;20556;-57
2023/06/09 02:07:05;;;;;;;12.83;9.20;;;12.90;96.20;;;;;;5025469;28;21979;-57
2023/06/09 02:09:32;;;;;;;15.00;9.97;;;12.80;96.50;;;;;;5023889;28;20430;-57
2023/06/09 02:11:59;;;;;;;9.57;8.53;;;12.80;96.60;;;;;;5027368;28;20636;-57
2023/06/09 02:14:32;;;;;;;10.03;8.80;;;12.80;97.00;;;;;;5025955;28;20426;-55
2023/06/09 02:16:58;;;;;;;10.77;9.03;;;12.80;97.40;;;;;;5018690;28;20449;-56
2023/06/09 02:19:24;;;;;;;11.37;10.00;;;12.70;98.00;;;;;;5022769;28;20431;-55
2023/06/09 02:21:49;;;;;;;11.80;9.30;;;12.70;98.30;;;;;;5022252;28;20553;-56
2023/06/09 02:24:15;;;;;;;10.90;9.77;;;12.70;98.10;;;;;;5025534;28;20196;-56
2023/06/09 02:26:41;;;;;;;11.20;9.40;;;12.70;97.70;;;;;;5024911;28;20669;-56
2023/06/09 02:29:06;;;;;;;15.83;9.50;;;12.70;98.00;;;;;;5027683;28;20219;-57
2023/06/09 02:31:32;;;;;;;12.30;10.33;;;12.60;98.60;;;;;;5019878;28;20226;-55
2023/06/09 02:33:57;;;;;;;12.27;9.50;;;12.60;99.20;;;;;;5021221;28;20208;-56
2023/06/09 02:36:23;;;;;;;14.27;10.53;;;12.50;99.60;;;;;;5021747;28;20195;-56
2023/06/09 02:38:49;;;;;;;11.67;9.80;;;12.50;99.80;;;;;;5019755;28;20267;-56
2023/06/09 02:41:15;;;;;;;12.97;9.90;;;12.50;99.90;;;;;;5025189;28;20180;-56
2023/06/09 02:43:40;;;;;;;10.03;9.03;;;12.40;99.90;;;;;;5023563;28;20250;-57
2023/06/09 02:46:06;;;;;;;12.63;9.87;;;12.40;99.90;;;;;;5024753;28;20235;-56
2023/06/09 02:48:32;;;;;;;14.63;9.30;;;12.30;99.90;;;;;;5027676;28;20176;-54
2023/06/09 02:50:58;;;;;;;13.07;10.67;;;12.30;99.90;;;;;;5024288;28;20492;-57
2023/06/09 02:53:23;;;;;;;13.43;10.70;;;12.30;99.90;;;;;;5024320;28;20226;-55
2023/06/09 02:55:49;;;;;;;11.90;9.77;;;12.20;99.90;;;;;;5024584;28;20730;-56
2023/06/09 02:58:15;;;;;;;12.93;9.40;;;12.20;99.90;;;;;;5024003;28;20191;-57
2023/06/09 03:00:44;;;;;;;13.60;9.30;;;12.20;99.90;;;;;;5022327;28;20176;-57
2023/06/09 03:03:11;;;;;;;14.20;9.57;;;12.20;99.90;;;;;;5021926;28;20979;-56
2023/06/09 03:05:40;;;;;;;11.67;9.63;;;12.20;99.90;;;;;;5022185;28;20560;-57
2023/06/09 03:08:09;;;;;;;14.87;10.10;;;12.10;99.90;;;;;;5026223;28;20419;-57
2023/06/09 03:10:35;;;;;;;12.60;10.20;;;12.10;99.90;;;;;;5017751;28;20430;-56
2023/06/09 03:13:01;;;;;;;14.30;9.70;;;12.10;99.90;;;;;;5024139;28;20511;-56
2023/06/09 03:15:26;;;;;;;11.83;9.43;;;12.00;99.90;;;;;;5027407;28;20183;-56
2023/06/09 03:17:52;;;;;;;13.17;9.63;;;12.00;99.90;;;;;;5019688;28;20211;-56
2023/06/09 03:20:19;;;;;;;17.90;10.80;;;12.00;99.90;;;;;;5025640;28;20222;-54
2023/06/09 03:22:45;;;;;;;11.13;9.47;;;12.00;99.90;;;;;;5020892;28;20238;-55
2023/06/09 03:25:12;;;;;;;13.30;10.00;;;12.00;99.90;;;;;;5021467;28;20458;-57
2023/06/09 03:27:37;;;;;;;12.50;10.80;;;12.00;99.90;;;;;;5024298;28;20994;-57
2023/06/09 03:30:05;;;;;;;10.70;9.60;;;11.90;99.90;;;;;;5018725;28;20983;-56
2023/06/09 03:32:31;;;;;;;11.70;9.77;;;11.90;99.90;;;;;;5018360;28;20188;-56
2023/06/09 03:34:56;;;;;;;16.10;10.77;;;11.90;99.90;;;;;;5021910;28;20431;-56
2023/06/09 03:37:22;;;;;;;12.60;9.47;;;11.90;99.90;;;;;;5024366;28;20735;-56
2023/06/09 03:39:48;;;;;;;12.97;10.30;;;11.90;99.90;;;;;;5020507;28;20184;-56
2023/06/09 03:42:13;;;;;;;14.50;10.60;;;11.80;99.90;;;;;;5024076;28;20692;-55
2023/06/09 03:44:39;;;;;;;12.10;9.73;;;11.80;99.90;;;;;;5017205;28;20207;-55
2023/06/09 03:47:06;;;;;;;11.03;9.47;;;11.80;99.90;;;;;;5026196;28;20178;-56
2023/06/09 03:49:31;;;;;;;12.80;10.13;;;11.80;99.90;;;;;;5022811;28;20172;-54
2023/06/09 03:51:57;;;;;;;12.37;10.10;;;11.80;99.90;;;;;;5025534;28;20437;-56
2023/06/09 03:54:23;;;;;;;11.40;9.80;;;11.70;99.90;;;;;;5020766;28;20190;-57
2023/06/09 03:56:48;;;;;;;13.20;10.80;;;11.70;99.90;;;;;;5019478;28;20187;-55
2023/06/09 03:59:14;;;;;;;12.00;9.57;;;11.70;99.90;;;;;;5021727;28;20180;-56
2023/06/09 04:01:40;;;;;;;19.50;10.57;;;11.70;99.90;;;;;;5023784;28;20546;-54
2023/06/09 04:04:06;;;;;;;11.17;9.90;;;11.70;99.90;;;;;;5027144;28;20204;-56
2023/06/09 04:06:31;;;;;;;13.87;10.50;;;11.80;99.90;;;;;;5017113;28;20429;-55
2023/06/09 04:08:57;;;;;;;16.60;10.10;;;11.80;99.90;;;;;;5022705;28;20210;-56
2023/06/09 04:11:23;;;;;;;14.63;9.90;;;11.80;99.90;;;;;;5023461;28;20264;-55
2023/06/09 04:13:48;;;;;;;13.83;10.40;;;11.70;99.90;;;;;;5021928;28;20626;-56
2023/06/09 04:16:16;;;;;;;13.47;10.40;;;11.70;99.90;;;;;;5016907;28;20203;-57
2023/06/09 04:18:41;;;;;;;15.00;10.70;;;11.80;99.90;;;;;;5020025;28;20529;-59
2023/06/09 04:21:07;;;;;;;15.73;11.00;;;11.80;99.90;;;;;;5020892;28;20434;-56
2023/06/09 04:23:32;;;;;;;13.37;10.03;;;11.80;99.90;;;;;;5023764;28;20227;-56
2023/06/09 04:25:59;;;;;;;14.17;11.03;;;11.80;99.90;;;;;;5021137;28;20200;-57
2023/06/09 04:28:25;;;;;;;13.60;10.53;;;11.90;99.90;;;;;;5021791;28;20271;-56
2023/06/09 04:30:51;;;;;;;14.00;10.83;;;11.90;99.90;;;;;;5021058;28;20556;-54
2023/06/09 04:33:18;;;;;;;15.40;10.70;;;11.90;99.90;;;;;;5023507;28;20195;-55
2023/06/09 04:35:43;;;;;;;13.70;10.90;;;11.90;99.90;;;;;;5021226;28;20230;-56
2023/06/09 04:38:09;;;;;;;16.47;12.47;;;11.90;99.90;;;;;;5026124;28;20434;-56
2023/06/09 04:40:37;;;;;;;13.83;10.50;;;11.90;99.90;;;;;;5022330;28;20690;-56
2023/06/09 04:43:02;;;;;;;13.90;10.53;;;12.00;99.90;;;;;;5022727;28;20442;-55
2023/06/09 04:45:28;;;;;;;24.60;11.50;;;12.00;99.90;;;;;;5026599;28;20496;-56
2023/06/09 04:47:57;;;;;;;14.47;10.60;;;12.00;99.90;;;;;;5026070;28;20209;-56
2023/06/09 04:50:23;;;;;;;13.93;10.73;;;12.10;99.90;;;;;;5020035;28;20644;-57
2023/06/09 04:52:49;;;;;;;14.73;11.70;;;12.20;99.90;;;;;;5017360;28;20974;-57
2023/06/09 04:55:14;;;;;;;13.10;10.23;;;12.30;99.90;;;;;;5016869;28;20458;-56
2023/06/09 04:57:40;;;;;;;13.40;9.97;;;12.30;99.90;;;;;;5021682;28;20245;-56
2023/06/09 05:00:18;;;;;;;16.13;11.07;;;12.40;99.90;;;;;;5019128;28;20509;-56
2023/06/09 05:02:44;;;;;;;17.13;11.30;;;12.40;99.90;;;;;;5021184;28;20458;-57
2023/06/09 05:05:10;;;;;;;13.90;11.00;;;12.50;99.90;;;;;;5019278;28;20581;-57
2023/06/09 05:07:39;;;;;;;13.83;11.37;;;12.50;99.90;;;;;;5025921;28;21005;-57
2023/06/09 05:10:06;;;;;;;13.90;10.90;;;12.50;99.90;;;;;;5023537;28;20512;-57
2023/06/09 05:12:31;;;;;;;14.73;11.10;;;12.60;99.90;;;;;;5024069;28;20537;-56
2023/06/09 05:14:57;;;;;;;16.07;11.37;;;12.60;99.90;;;;;;5029120;28;20521;-56
2023/06/09 05:17:22;;;;;;;14.77;11.20;;;12.70;99.90;;;;;;5022761;28;20188;-57
2023/06/09 05:19:48;;;;;;;11.90;10.20;;;12.70;99.90;;;;;;5025956;28;20176;-57
2023/06/09 05:22:14;;;;;;;13.83;11.07;;;12.80;99.90;;;;;;5024313;28;20200;-56
2023/06/09 05:24:39;;;;;;;13.30;10.33;;;12.90;99.90;;;;;;5023308;28;20219;-55
2023/06/09 05:27:05;;;;;;;13.87;10.00;;;12.90;99.90;;;;;;5022473;28;20172;-57
2023/06/09 05:29:30;;;;;;;12.03;9.70;;;13.10;99.90;;;;;;5027263;28;20596;-56
2023/06/09 05:31:56;;;;;;;13.93;11.00;;;13.10;99.90;;;;;;5029393;28;20183;-57
2023/06/09 05:34:22;;;;;;;13.70;11.10;;;13.30;99.90;;;;;;5024142;28;20652;-56
2023/06/09 05:36:47;;;;;;;13.40;11.10;;;13.30;99.90;;;;;;5025242;28;20189;-55
2023/06/09 05:39:13;;;;;;;15.37;10.77;;;13.40;99.90;;;;;;5025366;28;20186;-56
2023/06/09 05:41:39;;;;;;;15.20;11.17;;;13.50;99.90;;;;;;5025210;28;20645;-56
2023/06/09 05:44:04;;;;;;;12.07;10.50;;;13.50;99.90;;;;;;5022995;28;20243;-57
2023/06/09 05:46:30;;;;;;;12.80;11.30;;;13.60;99.90;;;;;;5017884;28;20823;-56
2023/06/09 05:48:55;;;;;;;12.83;10.70;;;13.70;99.80;;;;;;5025446;28;20598;-55
2023/06/09 05:51:21;;;;;;;13.70;11.00;;;13.70;99.90;;;;;;5023730;28;20207;-56
2023/06/09 05:53:46;;;;;;;13.80;10.50;;;13.80;99.90;;;;;;5027892;28;20204;-55
2023/06/09 05:56:16;;;;;;;11.83;10.47;;;13.90;99.90;;;;;;5027789;28;20215;-55
2023/06/09 05:58:44;;;;;;;16.33;11.37;;;14.00;99.90;;;;;;5019418;28;20183;-56
2023/06/09 06:01:12;;;;;;;13.83;10.43;;;14.20;99.90;;;;;;5018962;28;20426;-56
2023/06/09 06:03:38;;;;;;;13.00;10.73;;;14.30;99.30;;;;;;5026295;28;20546;-57
2023/06/09 06:06:04;;;;;;;14.20;10.30;;;14.40;99.40;;;;;;5028856;28;20466;-56
2023/06/09 06:08:30;;;;;;;15.53;10.80;;;14.50;99.20;;;;;;5017504;28;20434;-57
2023/06/09 06:10:55;;;;;;;21.60;11.00;;;14.60;98.90;;;;;;5022682;28;20215;-56
2023/06/09 06:13:21;;;;;;;11.90;9.47;;;14.70;99.30;;;;;;5022537;28;20192;-56
2023/06/09 06:15:46;;;;;;;11.80;9.33;;;14.80;99.70;;;;;;5025326;28;20172;-56
2023/06/09 06:18:12;;;;;;;15.90;10.23;;;15.00;99.60;;;;;;5019436;28;20540;-56
2023/06/09 06:20:38;;;;;;;13.77;9.80;;;15.10;98.10;;;;;;5022381;28;20187;-56
2023/06/09 06:23:03;;;;;;;17.70;10.10;;;15.30;97.50;;;;;;5024735;28;21067;-56
2023/06/09 06:25:29;;;;;;;20.20;10.10;;;15.40;96.70;;;;;;5021395;28;20218;-56
2023/06/09 06:27:55;;;;;;;11.63;9.17;;;15.60;95.20;;;;;;5027045;28;20229;-56
2023/06/09 06:30:21;;;;;;;12.20;9.60;;;15.70;94.40;;;;;;5024798;28;20244;-57
2023/06/09 06:32:51;;;;;;;12.57;9.53;;;15.80;93.50;;;;;;5018814;28;20813;-56
2023/06/09 06:35:24;;;;;;;13.57;8.63;;;16.00;92.70;;;;;;5022136;28;20175;-56
2023/06/09 06:37:50;;;;;;;11.13;8.67;;;16.10;91.30;;;;;;5024207;28;20492;-56
2023/06/09 06:40:16;;;;;;;13.00;8.97;;;16.20;90.20;;;;;;5026745;28;20541;-57
2023/06/09 06:42:42;;;;;;;18.70;8.47;;;16.40;87.90;;;;;;5023501;28;20447;-56
2023/06/09 06:45:08;;;;;;;11.40;8.33;;;16.50;86.30;;;;;;5017120;28;20489;-57
2023/06/09 06:47:33;;;;;;;12.73;8.67;;;16.70;84.20;;;;;;5019405;28;20233;-57
2023/06/09 06:49:59;;;;;;;9.53;7.60;;;16.80;82.10;;;;;;5019152;28;20438;-56
2023/06/09 06:52:25;;;;;;;11.10;8.10;;;16.90;79.80;;;;;;5019676;28;20204;-56
2023/06/09 06:54:51;;;;;;;9.50;7.40;;;17.00;78.70;;;;;;5019257;28;20225;-56
2023/06/09 06:57:16;;;;;;;9.83;8.40;;;17.10;77.60;;;;;;5022420;28;20179;-56
2023/06/09 06:59:42;;;;;;;10.73;7.07;;;17.20;75.70;;;;;;5024460;28;20215;-56
2023/06/09 07:02:08;;;;;;;8.63;7.10;;;17.30;74.80;;;;;;5022410;28;20223;-56
2023/06/09 07:04:33;;;;;;;8.20;7.00;;;17.40;73.60;;;;;;5023977;28;20759;-57
2023/06/09 07:06:59;;;;;;;10.50;7.70;;;17.50;73.10;;;;;;5024173;28;20439;-56
2023/06/09 07:09:27;;;;;;;7.87;6.93;;;17.60;71.80;;;;;;5014241;28;20310;-56
2023/06/09 07:11:53;;;;;;;9.83;7.47;;;17.70;71.10;;;;;;5021249;28;20439;-56
2023/06/09 07:14:18;;;;;;;10.00;7.30;;;17.90;70.70;;;;;;5021748;28;20442;-56
2023/06/09 07:16:44;;;;;;;9.20;6.50;;;18.00;69.90;;;;;;5015416;28;20195;-55
2023/06/09 07:19:09;;;;;;;8.83;7.00;;;18.10;68.80;;;;;;5023064;28;20669;-58
2023/06/09 07:21:35;;;;;;;8.20;7.13;;;18.20;68.10;;;;;;5016640;28;20198;-57
2023/06/09 07:24:03;;;;;;;14.90;7.10;;;18.30;67.70;;;;;;5014589;28;20675;-55
2023/06/09 07:26:29;;;;;;;7.70;6.77;;;18.40;67.10;;;;;;5020054;28;20934;-57
2023/06/09 07:28:55;;;;;;;8.70;6.83;;;18.40;66.70;;;;;;5017399;28;21056;-56
2023/06/09 07:31:20;;;;;;;9.10;7.00;;;18.50;66.10;;;;;;5023364;28;20513;-55
2023/06/09 07:33:46;;;;;;;8.57;6.67;;;18.60;65.70;;;;;;5025327;28;20200;-56
2023/06/09 07:36:13;;;;;;;6.77;5.90;;;18.70;65.70;;;;;;5024233;28;20215;-56
2023/06/09 07:38:39;;;;;;;8.80;6.50;;;18.70;65.00;;;;;;5013385;28;20535;-56
2023/06/09 07:41:05;;;;;;;9.17;6.90;;;18.90;64.50;;;;;;5021055;28;20442;-57
2023/06/09 07:43:31;;;;;;;10.63;7.80;;;18.90;64.00;;;;;;5022876;28;20830;-56
2023/06/09 07:45:56;;;;;;;9.10;6.10;;;19.10;63.50;;;;;;5025160;28;20554;-57
2023/06/09 07:48:22;;;;;;;7.70;6.40;;;19.20;63.40;;;;;;5020359;28;20656;-54
2023/06/09 07:50:48;;;;;;;13.20;6.43;;;19.20;62.80;;;;;;5021072;28;20176;-57
2023/06/09 07:53:13;;;;;;;13.23;6.20;;;19.40;62.80;;;;;;5019123;28;20267;-57
2023/06/09 07:55:39;;;;;;;9.50;6.80;;;19.40;62.10;;;;;;5023576;28;20203;-57
2023/06/09 07:58:04;;;;;;;7.80;5.97;;;19.50;61.60;;;;;;5014490;28;20188;-56
2023/06/09 08:00:30;;;;;;;9.53;6.70;;;19.60;60.80;;;;;;5020665;28;20183;-56
2023/06/09 08:03:02;;;;;;;7.63;6.23;;;19.70;60.50;;;;;;5023118;28;20199;-56
2023/06/09 08:05:29;;;;;;;6.90;6.20;;;19.80;60.60;;;;;;5025975;28;20713;-56
2023/06/09 08:07:55;;;;;;;10.77;5.83;;;19.80;60.20;;;;;;5022949;28;20475;-57
2023/06/09 08:10:21;;;;;;;7.67;6.00;;;19.90;59.90;;;;;;5025655;28;20430;-56
2023/06/09 08:12:48;;;;;;;12.03;6.27;;;20.00;60.10;;;;;;5021811;28;20271;-56
2023/06/09 08:15:14;;;;;;;7.60;5.10;;;20.10;59.80;;;;;;5019000;28;20314;-56
2023/06/09 08:17:39;;;;;;;6.90;5.87;;;20.20;59.10;;;;;;5025526;28;20990;-57
2023/06/09 08:20:06;;;;;;;8.23;5.97;;;20.30;58.80;;;;;;5024721;28;20589;-57
2023/06/09 08:22:31;;;;;;;5.97;5.33;;;20.40;59.10;;;;;;5026475;28;20204;-56
2023/06/09 08:24:59;;;;;;;6.40;5.63;;;20.50;58.60;;;;;;5020524;28;20465;-57
2023/06/09 08:27:24;;;;;;;6.50;5.47;;;20.70;58.40;;;;;;5020936;28;20172;-56
2023/06/09 08:29:50;;;;;;;8.53;5.53;;;20.80;58.50;;;;;;5018856;28;20431;-56
2023/06/09 08:32:16;;;;;;;9.03;5.33;;;20.90;58.30;;;;;;5019571;28;20265;-57
2023/06/09 08:34:42;;;;;;;9.33;5.60;;;21.00;58.00;;;;;;5026110;28;20547;-57
2023/06/09 08:37:08;;;;;;;9.77;5.57;;;21.10;57.10;;;;;;5018001;28;20488;-56
2023/06/09 08:39:34;;;;;;;8.07;4.97;;;21.30;56.40;;;;;;5020233;28;20213;-57
2023/06/09 08:42:21;;;;;;;7.53;4.80;;;21.40;55.60;;;;;;5022556;28;20217;-57
2023/06/09 08:44:49;;;;;;;6.20;5.23;;;21.50;55.00;;;;;;5026499;28;20219;-56
2023/06/09 08:47:19;;;;;;;8.47;5.30;;;21.50;55.10;;;;;;5029187;28;20430;-56
2023/06/09 08:49:45;;;;;;;7.23;5.20;;;21.60;55.10;;;;;;5018989;28;20492;-57
2023/06/09 08:52:11;;;;;;;6.27;4.80;;;21.70;54.30;;;;;;5021804;28;20533;-57
2023/06/09 08:54:37;;;;;;;5.90;4.77;;;21.80;53.70;;;;;;5028199;28;20442;-57
2023/06/09 08:57:03;;;;;;;4.67;4.27;;;21.90;52.70;;;;;;5030548;28;20214;-57
2023/06/09 08:59:33;;;;;;;7.70;5.23;;;22.00;51.90;;;;;;5027347;28;20488;-58
2023/06/09 09:02:01;;;;;;;6.77;4.40;;;22.20;51.80;;;;;;5025687;28;20459;-56
2023/06/09 09:04:27;;;;;;;6.07;5.03;;;22.30;51.40;;;;;;5025012;28;20473;-56
2023/06/09 09:06:54;;;;;;;5.87;5.10;;;22.30;51.20;;;;;;5025690;28;20434;-55
2023/06/09 09:09:19;;;;;;;7.40;4.87;;;22.40;51.50;;;;;;5030329;28;20176;-57
2023/06/09 09:11:45;;;;;;;8.20;4.93;;;22.50;51.20;;;;;;5023293;28;20497;-56
2023/06/09 09:14:13;;;;;;;5.60;4.67;;;22.50;50.80;;;;;;5028421;28;20183;-57
2023/06/09 09:16:39;;;;;;;6.20;4.87;;;22.70;50.50;;;;;;5025642;28;20184;-57
2023/06/09 09:19:05;;;;;;;6.27;4.83;;;22.80;50.20;;;;;;5026801;28;20435;-58
2023/06/09 09:21:37;;;;;;;9.80;5.20;;;22.90;49.60;;;;;;5022515;28;20187;-56
2023/06/09 09:24:06;;;;;;;5.60;5.00;;;23.00;48.90;;;;;;5026396;28;20224;-57
2023/06/09 09:26:32;;;;;;;12.50;4.73;;;23.10;48.40;;;;;;5017902;28;20450;-56
2023/06/09 09:29:06;;;;;;;20.73;15.00;;;23.20;48.40;;;;;;5008812;28;20443;-57
2023/06/09 09:31:38;;;;;;;6.80;5.00;;;23.30;48.40;;;;;;5027283;28;20435;-56
2023/06/09 09:34:09;;;;;;;5.77;5.17;;;23.50;48.30;;;;;;5025133;28;21402;-57
2023/06/09 09:36:44;;;;;;;6.13;4.80;;;23.50;47.80;;;;;;5027870;28;20439;-57
2023/06/09 09:39:09;;;;;;;5.13;4.70;;;23.60;47.70;;;;;;5026297;28;20938;-57
2023/06/09 09:41:35;;;;;;;5.37;4.40;;;23.80;47.30;;;;;;5029345;28;20484;-58
2023/06/09 09:44:00;;;;;;;4.87;4.37;;;23.90;47.10;;;;;;5022739;28;20195;-57
2023/06/09 09:46:26;;;;;;;4.50;3.90;;;23.90;46.30;;;;;;5026591;28;20645;-55
2023/06/09 09:48:54;;;;;;;4.80;4.30;;;24.00;45.50;;;;;;5025908;28;20739;-57
2023/06/09 09:51:20;;;;;;;8.40;4.70;;;24.00;45.30;;;;;;5020539;28;20177;-57
2023/06/09 09:53:46;;;;;;;10.97;4.97;;;24.10;44.70;;;;;;5024478;28;20446;-55
2023/06/09 09:56:15;;;;;;;5.33;4.57;;;24.10;44.50;;;;;;5009127;28;20430;-56
2023/06/09 09:58:44;;;;;;;5.93;4.37;;;24.20;45.00;;;;;;5025406;28;20266;-55
2023/06/09 10:01:11;;;;;;;5.93;4.33;;;24.20;44.50;;;;;;5027514;28;20529;-57
2023/06/09 10:03:42;;;;;;;8.87;4.60;;;24.30;44.50;;;;;;5023248;28;20558;-56
2023/06/09 10:06:12;;;;;;;5.60;5.10;;;24.30;44.50;;;;;;5019987;28;20454;-54
2023/06/09 10:08:41;;;;;;;5.20;4.70;;;24.40;45.30;;;;;;5024223;28;20411;-55
2023/06/09 10:11:08;;;;;;;7.60;5.13;;;24.50;45.50;;;;;;5026497;28;21036;-55
2023/06/09 10:13:33;;;;;;;7.30;5.00;;;24.60;45.50;;;;;;5026737;28;20473;-57
2023/06/09 10:16:00;;;;;;;5.47;4.90;;;24.70;45.60;;;;;;5007908;28;20426;-58
2023/06/09 10:18:26;;;;;;;7.10;5.57;;;24.80;45.10;;;;;;5021999;28;20183;-58
2023/06/09 10:20:53;;;;;;;7.50;5.03;;;24.90;44.70;;;;;;5005764;28;20451;-56
2023/06/09 10:23:20;;;;;;;5.80;4.73;;;24.90;45.10;;;;;;5026232;28;20455;-57
2023/06/09 10:25:50;;;;;;;5.83;5.30;;;25.00;45.30;;;;;;5021854;28;20490;-56
2023/06/09 10:28:17;;;;;;;5.80;5.10;;;25.10;44.40;;;;;;5017312;28;20514;-56
2023/06/09 10:30:50;;;;;;;5.90;5.13;;;25.20;44.30;;;;;;5009534;28;20429;-56
2023/06/09 10:33:21;;;;;;;6.03;5.33;;;25.30;44.20;;;;;;5024316;28;21136;-56
2023/06/09 10:35:48;;;;;;;5.50;4.87;;;25.40;44.30;;;;;;5022317;28;20429;-55
2023/06/09 10:38:31;;;;;;;6.20;5.17;;;25.60;45.10;;;;;;5025561;28;20453;-57
2023/06/09 10:41:13;;;;;;;5.57;5.07;;;25.70;44.80;;;;;;5021661;28;20476;-57
2023/06/09 10:44:16;;;;;;;6.40;5.07;;;25.80;44.60;;;;;;5026474;28;20457;-57
2023/06/09 10:46:46;;;;;;;6.90;5.87;;;25.90;44.80;;;;;;5016662;28;20429;-56
2023/06/09 10:49:37;;;;;;;7.60;5.30;;;25.90;44.50;;;;;;5022826;28;20422;-55
2023/06/09 10:52:05;;;;;;;6.83;4.87;;;26.00;44.30;;;;;;5020953;28;20422;-57
2023/06/09 10:54:32;;;;;;;7.40;5.27;;;26.10;43.80;;;;;;5022867;28;20433;-56
2023/06/09 10:57:03;;;;;;;5.83;4.90;;;26.20;43.50;;;;;;5025648;28;20434;-57
2023/06/09 10:59:30;;;;;;;5.60;5.10;;;26.30;44.30;;;;;;5027529;28;20982;-57
2023/06/09 11:02:11;;;;;;;6.50;4.97;;;26.50;43.10;;;;;;5021976;28;20518;-57
2023/06/09 11:04:41;;;;;;;6.40;5.40;;;26.60;42.20;;;;;;5024211;28;20492;-56
2023/06/09 11:07:10;;;;;;;9.37;5.30;;;26.60;40.50;;;;;;5026639;28;20485;-57
2023/06/09 11:09:36;;;;;;;6.70;5.43;;;26.60;41.70;;;;;;5024217;28;20493;-57
2023/06/09 11:12:02;;;;;;;6.30;5.70;;;26.60;41.70;;;;;;5020974;28;20419;-56
2023/06/09 11:14:51;;;;;;;6.70;5.20;;;26.70;41.30;;;;;;5024759;28;20495;-58
2023/06/09 11:17:16;;;;;;;5.23;4.83;;;26.80;41.70;;;;;;5024067;28;20179;-56
2023/06/09 11:19:42;;;;;;;6.40;5.10;;;26.90;42.10;;;;;;5026147;28;20943;-56
2023/06/09 11:22:12;;;;;;;6.83;5.13;;;27.00;42.00;;;;;;5028183;28;20263;-57
2023/06/09 11:24:51;;;;;;;5.83;5.23;;;27.20;41.00;;;;;;5022504;28;20274;-57
2023/06/09 11:27:21;;;;;;;5.90;4.87;;;27.30;39.50;;;;;;5020622;28;20186;-57
2023/06/09 11:30:05;;;;;;;6.13;5.50;;;27.30;40.00;;;;;;5024778;28;20729;-57
2023/06/09 11:32:51;;;;;;;6.53;5.33;;;27.50;39.40;;;;;;5026769;28;20472;-57
2023/06/09 11:35:28;;;;;;;9.80;5.10;;;27.60;36.20;;;;;;5022516;28;20183;-56
2023/06/09 11:38:07;;;;;;;9.00;5.10;;;27.60;37.70;;;;;;5024972;28;20429;-57
2023/06/09 11:40:48;;;;;;;5.23;4.60;;;27.70;38.30;;;;;;5026052;28;20183;-57
2023/06/09 11:43:14;;;;;;;6.73;5.03;;;27.80;37.20;;;;;;5022301;28;20322;-57
2023/06/09 11:45:40;;;;;;;5.50;4.80;;;27.90;37.60;;;;;;5026664;28;20703;-57
2023/06/09 11:48:06;;;;;;;5.10;4.60;;;27.90;36.80;;;;;;5026706;28;20179;-57
2023/06/09 11:50:46;;;;;;;5.87;5.13;;;27.70;37.20;;;;;;5020274;28;20182;-58
2023/06/09 11:53:17;;;;;;;6.07;5.03;;;27.40;37.20;;;;;;5021138;28;20190;-55
2023/06/09 11:55:43;;;;;;;6.93;4.97;;;27.10;37.70;;;;;;5025370;28;20278;-57
2023/06/09 11:58:10;;;;;;;8.17;4.80;;;26.80;38.50;;;;;;5026018;28;20556;-57
2023/06/09 12:00:41;;;;;;;6.30;5.60;;;26.90;39.10;;;;;;5025960;28;20185;-57
2023/06/09 12:03:07;;;;;;;5.80;4.83;;;27.10;38.80;;;;;;5019041;28;20203;-58
2023/06/09 12:05:34;;;;;;;5.70;5.20;;;27.40;38.20;;;;;;5021027;28;20679;-55
2023/06/09 12:08:02;;;;;;;13.63;5.20;;;27.70;38.20;;;;;;5024829;28;20659;-56
2023/06/09 12:10:29;;;;;;;11.30;5.07;;;27.80;37.50;;;;;;5020344;28;20282;-56
2023/06/09 12:12:57;;;;;;;8.17;5.37;;;27.70;37.10;;;;;;5023969;28;20203;-58
2023/06/09 12:15:27;;;;;;;8.03;5.30;;;27.30;37.70;;;;;;5025805;28;20219;-57
2023/06/09 12:17:54;;;;;;;7.20;5.03;;;27.00;38.50;;;;;;5021961;28;20203;-57
2023/06/09 12:20:38;;;;;;;7.10;5.40;;;26.90;38.90;;;;;;5026451;28;20246;-57
2023/06/09 12:23:08;;;;;;;6.93;5.77;;;26.80;38.80;;;;;;5028215;28;20207;-56
2023/06/09 12:25:40;;;;;;;5.43;4.87;;;26.60;38.60;;;;;;5025128;28;20296;-56
2023/06/09 12:28:23;;;;;;;6.53;4.53;;;26.30;39.10;;;;;;5024333;28;20434;-56
2023/06/09 12:30:53;;;;;;;7.03;5.60;;;26.00;39.10;;;;;;5023968;28;20423;-56
2023/06/09 12:33:26;;;;;;;5.97;5.03;;;26.10;39.40;;;;;;5026440;28;20541;-57
2023/06/09 12:35:55;;;;;;;7.10;5.17;;;26.50;39.00;;;;;;5024418;28;20751;-56
2023/06/09 12:38:23;;;;;;;6.70;5.57;;;27.00;38.70;;;;;;5022908;28;20972;-57
2023/06/09 12:40:51;;;;;;;10.47;5.93;;;27.50;37.50;;;;;;5027316;28;20180;-56
2023/06/09 12:43:27;;;;;;;8.53;5.87;;;28.00;37.70;;;;;;5026551;28;20207;-57